createdAt,value
2018-04-17T00:02:00.838Z,3.57
2018-04-17T00:04:28.375Z,3.40
2018-04-17T00:06:55.881Z,3.50
2018-04-17T00:09:25.070Z,3.97
2018-04-17T00:11:52.647Z,3.40
2018-04-17T00:14:20.934Z,3.97
2018-04-17T00:16:48.441Z,3.70
2018-04-17T00:19:16.009Z,4.03
2018-04-17T00:21:43.535Z,3.53
2018-04-17T00:24:11.065Z,3.93
2018-04-17T00:26:39.403Z,3.97
2018-04-17T00:29:06.907Z,4.30
2018-04-17T00:31:34.828Z,4.10
2018-04-17T00:34:02.373Z,3.93
2018-04-17T00:36:29.890Z,4.00
2018-04-17T00:38:57.403Z,4.00
2018-04-17T00:41:24.917Z,3.90
2018-04-17T00:43:53.201Z,3.70
2018-04-17T00:46:20.722Z,3.83
2018-04-17T00:48:48.278Z,3.93
2018-04-17T00:51:15.825Z,4.27
2018-04-17T00:53:59.131Z,3.93
2018-04-17T00:56:26.685Z,4.20
2018-04-17T00:58:54.202Z,4.23
2018-04-17T01:01:21.723Z,3.80
2018-04-17T01:03:49.275Z,4.03
2018-04-17T01:06:16.790Z,4.13
2018-04-17T01:08:44.311Z,3.90
2018-04-17T01:11:11.913Z,4.50
2018-04-17T01:13:39.427Z,3.97
2018-04-17T01:16:06.937Z,4.20
2018-04-17T01:18:34.489Z,4.00
2018-04-17T01:21:01.996Z,4.60
2018-04-17T01:23:29.494Z,4.03
2018-04-17T01:25:57.020Z,3.80
2018-04-17T01:28:25.283Z,4.10
2018-04-17T01:30:52.809Z,4.17
2018-04-17T01:33:20.355Z,3.80
2018-04-17T01:35:47.869Z,4.17
2018-04-17T01:38:15.409Z,4.30
2018-04-17T01:40:42.962Z,4.30
2018-04-17T01:43:11.244Z,4.47
2018-04-17T01:45:38.746Z,4.20
2018-04-17T01:48:06.316Z,4.30
2018-04-17T01:50:34.595Z,3.90
2018-04-17T01:53:02.099Z,3.83
2018-04-17T01:55:29.736Z,3.83
2018-04-17T01:57:57.242Z,3.70
2018-04-17T02:00:26.018Z,4.05
2018-04-17T02:02:54.328Z,3.80
2018-04-17T02:05:21.822Z,3.90
2018-04-17T02:07:49.323Z,5.20
2018-04-17T02:10:16.902Z,3.97
2018-04-17T02:12:44.427Z,3.93
2018-04-17T02:15:11.932Z,4.30
2018-04-17T02:17:39.451Z,4.50
2018-04-17T02:20:07.008Z,4.03
2018-04-17T02:22:34.517Z,4.03
2018-04-17T02:25:02.070Z,4.43
2018-04-17T02:27:29.574Z,4.20
2018-04-17T02:29:57.075Z,4.60
2018-04-17T02:32:24.612Z,4.70
2018-04-17T02:34:52.128Z,4.80
2018-04-17T02:37:19.644Z,4.17
2018-04-17T02:39:47.947Z,4.50
2018-04-17T02:42:15.461Z,4.80
2018-04-17T02:44:42.963Z,5.07
2018-04-17T02:47:10.506Z,4.80
2018-04-17T02:49:38.035Z,4.77
2018-04-17T02:52:05.547Z,4.50
2018-04-17T02:54:33.150Z,5.03
2018-04-17T02:57:00.646Z,5.33
2018-04-17T02:59:28.911Z,5.53
2018-04-17T03:01:56.435Z,5.47
2018-04-17T03:04:23.928Z,5.20
2018-04-17T03:06:52.206Z,5.47
2018-04-17T03:09:19.741Z,5.73
2018-04-17T03:11:47.248Z,6.20
2018-04-17T03:14:15.335Z,5.37
2018-04-17T03:16:42.861Z,5.37
2018-04-17T03:19:10.371Z,5.50
2018-04-17T03:21:38.666Z,6.00
2018-04-17T03:24:06.240Z,5.90
2018-04-17T03:26:36.222Z,6.17
2018-04-17T03:29:03.718Z,6.03
2018-04-17T03:31:31.241Z,6.90
2018-04-17T03:33:58.757Z,6.03
2018-04-17T03:36:27.556Z,6.73
2018-04-17T03:38:55.114Z,6.93
2018-04-17T03:41:23.388Z,6.60
2018-04-17T03:43:50.901Z,6.63
2018-04-17T03:46:18.425Z,6.97
2018-04-17T03:48:46.691Z,7.03
2018-04-17T03:51:14.205Z,7.20
2018-04-17T03:53:41.780Z,7.60
2018-04-17T03:56:09.292Z,6.90
2018-04-17T03:58:36.834Z,7.07
2018-04-17T04:01:04.359Z,7.50
2018-04-17T04:03:31.867Z,8.27
2018-04-17T04:05:59.379Z,7.77
2018-04-17T04:08:26.912Z,8.37
2018-04-17T04:10:54.419Z,8.10
2018-04-17T04:13:21.944Z,7.90
2018-04-17T04:15:49.479Z,8.60
2018-04-17T04:18:29.550Z,8.30
2018-04-17T04:24:09.394Z,8.53
2018-04-17T04:26:36.926Z,8.63
2018-04-17T04:29:04.425Z,8.40
2018-04-17T04:31:31.946Z,8.90
2018-04-17T04:34:00.274Z,8.07
2018-04-17T04:36:27.786Z,8.73
2018-04-17T04:38:56.063Z,9.47
2018-04-17T04:41:23.607Z,8.10
2018-04-17T04:43:51.114Z,8.23
2018-04-17T04:46:19.409Z,8.77
2018-04-17T04:48:46.954Z,8.77
2018-04-17T04:51:14.522Z,9.10
2018-04-17T04:53:42.042Z,8.10
2018-04-17T04:56:09.614Z,8.33
2018-04-17T04:58:37.889Z,8.53
2018-04-17T05:01:05.407Z,8.20
2018-04-17T05:03:32.940Z,8.57
2018-04-17T05:06:00.454Z,8.60
2018-04-17T05:08:27.959Z,8.10
2018-04-17T05:10:55.496Z,8.13
2018-04-17T05:13:22.997Z,9.40
2018-04-17T05:15:50.502Z,9.13
2018-04-17T05:18:18.795Z,9.07
2018-04-17T05:20:46.323Z,9.53
2018-04-17T05:23:13.955Z,9.37
2018-04-17T05:25:41.516Z,10.23
2018-04-17T05:28:09.032Z,9.50
2018-04-17T05:30:37.309Z,9.93
2018-04-17T05:33:04.842Z,10.10
2018-04-17T05:35:32.372Z,10.47
2018-04-17T05:37:59.916Z,10.40
2018-04-17T05:40:27.448Z,10.33
2018-04-17T05:42:55.037Z,11.43
2018-04-17T05:45:23.302Z,12.43
2018-04-17T05:47:50.845Z,10.93
2018-04-17T05:50:19.191Z,11.80
2018-04-17T05:52:46.696Z,13.77
2018-04-17T05:55:15.000Z,13.20
2018-04-17T05:57:42.591Z,14.97
2018-04-17T06:00:10.101Z,15.03
2018-04-17T06:02:38.463Z,15.97
2018-04-17T06:05:06.790Z,16.47
2018-04-17T06:07:34.323Z,17.20
2018-04-17T06:10:01.835Z,17.37
2018-04-17T06:12:29.445Z,19.40
2018-04-17T06:14:57.801Z,18.60
2018-04-17T06:17:26.089Z,17.73
2018-04-17T06:19:53.644Z,19.17
2018-04-17T06:22:21.940Z,18.13
2018-04-17T06:24:49.509Z,17.47
2018-04-17T06:27:17.055Z,18.67
2018-04-17T06:29:44.627Z,18.80
2018-04-17T06:32:12.187Z,19.13
2018-04-17T06:34:40.462Z,20.43
2018-04-17T06:37:08.038Z,19.47
2018-04-17T06:39:35.549Z,18.30
2018-04-17T06:42:03.161Z,18.83
2018-04-17T06:44:31.467Z,18.50
2018-04-17T06:46:58.982Z,17.10
2018-04-17T06:49:26.510Z,17.90
2018-04-17T06:51:54.057Z,17.50
2018-04-17T06:54:21.619Z,19.20
2018-04-17T06:56:49.139Z,18.37
2018-04-17T06:59:16.700Z,20.03
2018-04-17T07:01:44.238Z,19.87
2018-04-17T07:04:11.788Z,19.00
2018-04-17T07:06:39.351Z,18.13
2018-04-17T07:09:07.663Z,19.60
2018-04-17T07:11:35.201Z,18.30
2018-04-17T07:14:04.070Z,18.13
2018-04-17T07:16:31.599Z,17.93
2018-04-17T07:18:59.148Z,17.87
2018-04-17T07:21:26.699Z,17.53
2018-04-17T07:23:54.208Z,16.57
2018-04-17T07:26:21.767Z,15.63
2018-04-17T07:28:49.269Z,15.90
2018-04-17T07:31:16.787Z,14.90
2018-04-17T07:33:44.336Z,15.57
2018-04-17T07:36:11.864Z,16.17
2018-04-17T07:38:39.386Z,13.10
2018-04-17T07:41:07.755Z,13.37
2018-04-17T07:43:35.283Z,12.80
2018-04-17T07:46:02.785Z,12.60
2018-04-17T07:48:42.128Z,12.83
2018-04-17T07:51:09.695Z,11.27
2018-04-17T07:53:37.265Z,12.53
2018-04-17T07:56:04.839Z,11.80
2018-04-17T07:58:32.346Z,12.17
2018-04-17T08:00:59.861Z,10.27
2018-04-17T08:03:27.550Z,10.57
2018-04-17T08:05:55.143Z,11.13
2018-04-17T08:08:22.648Z,10.97
2018-04-17T08:10:50.190Z,10.03
2018-04-17T08:13:18.460Z,10.17
2018-04-17T08:15:45.969Z,10.13
2018-04-17T08:18:13.552Z,9.47
2018-04-17T08:20:41.062Z,10.03
2018-04-17T08:23:08.638Z,10.27
2018-04-17T08:25:36.191Z,9.80
2018-04-17T08:28:03.717Z,9.27
2018-04-17T08:30:31.241Z,9.07
2018-04-17T08:32:58.769Z,9.47
2018-04-17T08:35:26.308Z,9.17
2018-04-17T08:37:54.601Z,9.70
2018-04-17T08:40:22.119Z,8.47
2018-04-17T08:42:49.747Z,7.60
2018-04-17T08:45:17.223Z,7.20
2018-04-17T08:47:44.757Z,7.57
2018-04-17T08:50:12.310Z,7.53
2018-04-17T08:52:39.843Z,7.40
2018-04-17T08:55:07.418Z,7.67
2018-04-17T08:57:34.998Z,6.50
2018-04-17T09:00:02.491Z,6.60
2018-04-17T09:02:29.995Z,6.60
2018-04-17T09:04:57.556Z,6.73
2018-04-17T09:07:25.077Z,6.43
2018-04-17T09:09:52.613Z,6.47
2018-04-17T09:12:20.179Z,5.30
2018-04-17T09:14:47.703Z,5.23
2018-04-17T09:17:15.217Z,4.50
2018-04-17T09:19:42.750Z,3.80
2018-04-17T09:22:10.265Z,3.87
2018-04-17T09:24:37.772Z,4.63
2018-04-17T09:27:05.320Z,5.00
2018-04-17T09:29:33.090Z,4.67
2018-04-17T09:32:00.598Z,5.63
2018-04-17T09:34:28.972Z,5.70
2018-04-17T09:36:56.452Z,5.50
2018-04-17T09:39:25.438Z,5.57
2018-04-17T09:41:53.036Z,4.87
2018-04-17T09:44:20.596Z,5.43
2018-04-17T09:46:48.127Z,5.37
2018-04-17T09:49:16.438Z,5.30
2018-04-17T09:51:43.946Z,5.27
2018-04-17T09:54:11.452Z,5.20
2018-04-17T09:56:39.742Z,4.53
2018-04-17T09:59:07.267Z,4.13
2018-04-17T10:01:34.846Z,4.70
2018-04-17T10:04:02.403Z,4.50
2018-04-17T10:06:29.933Z,4.83
2018-04-17T10:08:57.515Z,4.30
2018-04-17T10:11:25.055Z,3.53
2018-04-17T10:13:52.574Z,3.83
2018-04-17T10:16:20.141Z,4.10
2018-04-17T10:18:47.667Z,3.23
2018-04-17T10:21:15.667Z,3.20
2018-04-17T10:23:43.975Z,3.73
2018-04-17T10:26:12.300Z,3.83
2018-04-17T10:28:39.859Z,3.03
2018-04-17T10:31:07.400Z,3.20
2018-04-17T10:33:35.022Z,3.60
2018-04-17T10:36:02.578Z,3.60
2018-04-17T10:38:30.111Z,3.50
2018-04-17T10:40:57.638Z,3.67
2018-04-17T10:43:25.146Z,4.00
2018-04-17T10:45:52.696Z,3.90
2018-04-17T10:48:20.211Z,3.57
2018-04-17T10:50:47.738Z,3.60
2018-04-17T10:53:15.554Z,4.13
2018-04-17T10:55:43.080Z,4.23
2018-04-17T10:58:10.597Z,4.40
2018-04-17T11:00:38.145Z,3.60
2018-04-17T11:03:05.708Z,3.40
2018-04-17T11:05:33.228Z,3.50
2018-04-17T11:08:00.767Z,3.93
2018-04-17T11:10:28.313Z,3.80
2018-04-17T11:12:55.814Z,3.03
2018-04-17T11:15:23.371Z,2.80
2018-04-17T11:17:50.894Z,3.50
2018-04-17T11:20:18.395Z,4.30
2018-04-17T11:22:45.944Z,4.47
2018-04-17T11:25:13.479Z,4.23
2018-04-17T11:27:40.972Z,3.40
2018-04-17T11:30:08.498Z,4.17
2018-04-17T11:32:36.007Z,4.10
2018-04-17T11:35:03.539Z,4.40
2018-04-17T11:37:31.087Z,4.37
2018-04-17T11:39:58.585Z,4.17
2018-04-17T11:42:26.223Z,4.12
2018-04-17T11:44:53.782Z,4.07
2018-04-17T11:47:21.334Z,4.57
2018-04-17T11:49:48.839Z,4.70
2018-04-17T11:52:16.379Z,4.60
2018-04-17T11:54:43.891Z,3.00
2018-04-17T11:57:11.433Z,4.30
2018-04-17T11:59:39.701Z,4.23
2018-04-17T12:02:07.202Z,4.90
2018-04-17T12:04:34.759Z,6.07
2018-04-17T12:07:02.297Z,5.10
2018-04-17T12:09:29.847Z,6.10
2018-04-17T12:11:57.512Z,5.03
2018-04-17T12:14:25.151Z,3.47
2018-04-17T12:16:52.613Z,5.27
2018-04-17T12:19:20.154Z,5.10
2018-04-17T12:21:47.678Z,6.17
2018-04-17T12:24:15.221Z,4.37
2018-04-17T12:26:42.764Z,5.70
2018-04-17T12:29:11.045Z,5.30
2018-04-17T12:31:38.580Z,4.43
2018-04-17T12:34:06.110Z,3.70
2018-04-17T12:36:33.636Z,4.10
2018-04-17T12:39:01.137Z,4.03
2018-04-17T12:41:28.701Z,3.90
2018-04-17T12:43:56.236Z,4.27
2018-04-17T12:46:23.754Z,3.90
2018-04-17T12:48:52.056Z,4.10
2018-04-17T12:51:21.118Z,4.27
2018-04-17T12:53:48.679Z,3.67
2018-04-17T12:56:16.222Z,3.50
2018-04-17T12:58:43.729Z,3.60
2018-04-17T13:01:11.230Z,3.50
2018-04-17T13:03:38.759Z,4.13
2018-04-17T13:06:06.276Z,4.33
2018-04-17T13:08:33.786Z,4.30
2018-04-17T13:11:01.351Z,4.33
2018-04-17T13:13:28.861Z,4.60
2018-04-17T13:15:56.399Z,3.60
2018-04-17T13:18:23.946Z,3.87
2018-04-17T13:20:51.461Z,4.03
2018-04-17T13:23:20.458Z,3.80
2018-04-17T13:25:48.814Z,3.70
2018-04-17T13:28:16.335Z,4.50
2018-04-17T13:30:43.860Z,4.50
2018-04-17T13:33:12.192Z,4.40
2018-04-17T13:35:39.703Z,4.50
2018-04-17T13:38:07.272Z,4.80
2018-04-17T13:40:34.838Z,4.90
2018-04-17T13:43:02.373Z,4.20
2018-04-17T13:45:29.975Z,4.70
2018-04-17T13:47:57.528Z,4.33
2018-04-17T13:50:25.047Z,4.17
2018-04-17T13:52:52.558Z,3.60
2018-04-17T13:55:20.112Z,4.03
2018-04-17T13:57:47.639Z,4.67
2018-04-17T14:00:15.977Z,4.27
2018-04-17T14:02:43.512Z,4.50
2018-04-17T14:05:11.061Z,4.03
2018-04-17T14:07:38.580Z,4.43
2018-04-17T14:10:07.642Z,4.50
2018-04-17T14:12:35.166Z,3.97
2018-04-17T14:15:03.545Z,4.17
2018-04-17T14:17:31.885Z,4.00
2018-04-17T14:19:59.453Z,4.40
2018-04-17T14:22:26.982Z,4.50
2018-04-17T14:24:54.543Z,4.10
2018-04-17T14:27:22.065Z,4.07
2018-04-17T14:29:50.337Z,4.10
2018-04-17T14:32:17.880Z,4.37
2018-04-17T14:34:45.384Z,3.53
2018-04-17T14:37:13.670Z,4.10
2018-04-17T14:39:41.175Z,4.10
2018-04-17T14:42:08.730Z,3.80
2018-04-17T14:44:36.274Z,3.20
2018-04-17T14:47:03.826Z,3.43
2018-04-17T14:49:31.399Z,3.63
2018-04-17T14:51:58.934Z,4.00
2018-04-17T14:54:26.559Z,3.83
2018-04-17T14:56:54.093Z,3.43
2018-04-17T14:59:21.589Z,3.87
2018-04-17T15:01:49.946Z,3.00
2018-04-17T15:04:17.483Z,3.57
2018-04-17T15:06:44.998Z,3.60
2018-04-17T15:09:12.521Z,3.70
2018-04-17T15:11:40.045Z,3.03
2018-04-17T15:14:07.562Z,3.90
2018-04-17T15:16:35.113Z,2.97
2018-04-17T15:19:02.671Z,3.30
2018-04-17T15:21:30.227Z,3.70
2018-04-17T15:23:57.748Z,3.77
2018-04-17T15:26:25.763Z,3.97
2018-04-17T15:28:53.481Z,3.30
2018-04-17T15:31:20.996Z,3.37
2018-04-17T15:33:49.295Z,3.60
2018-04-17T15:36:17.574Z,3.57
2018-04-17T15:38:45.091Z,2.87
2018-04-17T15:41:12.624Z,2.63
2018-04-17T15:43:40.166Z,3.67
2018-04-17T15:46:07.754Z,3.40
2018-04-17T15:48:35.278Z,3.00
2018-04-17T15:51:03.750Z,3.47
2018-04-17T15:53:31.427Z,2.80
2018-04-17T15:55:59.004Z,3.20
2018-04-17T15:58:26.707Z,3.40
2018-04-17T16:00:54.353Z,3.43
2018-04-17T16:03:21.921Z,3.53
2018-04-17T16:05:49.730Z,3.27
2018-04-17T16:08:17.275Z,3.20
2018-04-17T16:10:45.187Z,3.17
2018-04-17T16:13:13.493Z,3.57
2018-04-17T16:15:41.059Z,3.50
2018-04-17T16:18:08.566Z,3.13
2018-04-17T16:20:36.878Z,3.23
2018-04-17T16:23:04.397Z,3.40
2018-04-17T16:25:31.931Z,3.60
2018-04-17T16:27:59.496Z,3.53
2018-04-17T16:30:27.020Z,3.50
2018-04-17T16:32:54.528Z,3.50
2018-04-17T16:35:22.972Z,2.90
2018-04-17T16:37:50.483Z,3.43
2018-04-17T16:40:18.031Z,2.60
2018-04-17T16:42:45.593Z,3.83
2018-04-17T16:45:13.870Z,3.60
2018-04-17T16:47:42.172Z,3.67
2018-04-17T16:50:09.714Z,4.17
2018-04-17T16:52:37.303Z,4.10
2018-04-17T16:55:04.828Z,3.90
2018-04-17T16:57:32.510Z,3.37
2018-04-17T17:00:00.094Z,3.67
2018-04-17T17:02:27.609Z,3.83
2018-04-17T17:04:55.292Z,4.07
2018-04-17T17:07:22.802Z,3.70
2018-04-17T17:09:50.357Z,3.90
2018-04-17T17:12:18.660Z,3.57
2018-04-17T17:14:46.200Z,3.87
2018-04-17T17:17:13.840Z,3.23
2018-04-17T17:19:41.480Z,3.93
2018-04-17T17:22:09.071Z,3.70
2018-04-17T17:24:42.339Z,3.73
2018-04-17T17:27:10.616Z,4.00
2018-04-17T17:29:38.898Z,3.80
2018-04-17T17:32:07.323Z,3.43
2018-04-17T17:34:34.858Z,3.80
2018-04-17T17:37:02.372Z,3.73
2018-04-17T17:39:31.448Z,3.80
2018-04-17T17:41:58.975Z,3.80
2018-04-17T17:44:26.492Z,3.30
2018-04-17T17:46:54.020Z,3.73
2018-04-17T17:49:21.580Z,3.70
2018-04-17T17:51:49.118Z,4.00
2018-04-17T17:54:17.417Z,3.77
2018-04-17T17:56:45.560Z,3.60
2018-04-17T17:59:13.110Z,3.27
2018-04-17T18:01:41.442Z,3.67
2018-04-17T18:04:08.964Z,3.90
2018-04-17T18:06:36.471Z,3.80
2018-04-17T18:09:04.089Z,4.10
2018-04-17T18:11:31.635Z,4.00
2018-04-17T18:13:59.161Z,4.27
2018-04-17T18:16:26.692Z,4.33
2018-04-17T18:18:54.317Z,3.70
2018-04-17T18:21:21.930Z,3.73
2018-04-17T18:23:49.438Z,3.80
2018-04-17T18:26:17.744Z,3.40
2018-04-17T18:28:45.266Z,3.07
2018-04-17T18:31:13.578Z,3.43
2018-04-17T18:33:41.107Z,3.20
2018-04-17T18:36:09.437Z,3.37
2018-04-17T18:38:36.992Z,3.53
2018-04-17T18:41:04.527Z,3.43
2018-04-17T18:43:32.093Z,3.60
2018-04-17T18:45:59.750Z,3.27
2018-04-17T18:48:27.335Z,3.83
2018-04-17T18:50:54.859Z,3.40
2018-04-17T18:53:22.431Z,3.43
2018-04-17T18:55:50.006Z,3.53
2018-04-17T18:58:17.981Z,3.23
2018-04-17T19:00:46.405Z,2.80
2018-04-17T19:03:13.943Z,3.43
2018-04-17T19:05:41.448Z,2.80
2018-04-17T19:08:09.740Z,3.20
2018-04-17T19:10:37.831Z,3.23
2018-04-17T19:13:05.333Z,3.20
2018-04-17T19:15:32.861Z,3.40
2018-04-17T19:18:00.393Z,3.60
2018-04-17T19:20:27.911Z,3.40
2018-04-17T19:22:55.437Z,3.10
2018-04-17T19:25:23.074Z,2.87
2018-04-17T19:27:51.392Z,2.93
2018-04-17T19:30:18.939Z,2.90
2018-04-17T19:32:46.466Z,3.63
2018-04-17T19:35:13.975Z,3.27
2018-04-17T19:37:41.617Z,3.43
2018-04-17T19:40:09.139Z,3.20
2018-04-17T19:42:36.663Z,3.30
2018-04-17T19:45:04.257Z,3.47
2018-04-17T19:47:31.767Z,3.47
2018-04-17T19:49:59.271Z,3.57
2018-04-17T19:52:26.811Z,3.50
2018-04-17T19:54:54.322Z,3.93
2018-04-17T19:57:22.609Z,3.43
2018-04-17T19:59:50.150Z,3.30
2018-04-17T20:02:18.452Z,3.80
2018-04-17T20:04:45.970Z,3.90
2018-04-17T20:07:13.523Z,3.80
2018-04-17T20:09:41.075Z,4.03
2018-04-17T20:12:08.618Z,3.60
2018-04-17T20:14:36.173Z,3.70
2018-04-17T20:17:03.705Z,3.60
2018-04-17T20:19:31.222Z,4.20
2018-04-17T20:21:58.777Z,3.60
2018-04-17T20:24:26.853Z,4.10
2018-04-17T20:26:54.378Z,3.87
2018-04-17T20:29:21.919Z,4.13
2018-04-17T20:31:49.439Z,4.10
2018-04-17T20:34:16.953Z,4.13
2018-04-17T20:36:44.515Z,3.83
2018-04-17T20:39:12.135Z,4.00
2018-04-17T20:41:39.666Z,4.27
2018-04-17T20:44:07.219Z,4.00
2018-04-17T20:46:34.793Z,4.47
2018-04-17T20:49:02.346Z,3.57
2018-04-17T20:51:29.862Z,3.53
2018-04-17T20:53:57.422Z,4.10
2018-04-17T20:56:24.975Z,4.37
2018-04-17T20:58:52.486Z,4.10
2018-04-17T21:01:19.994Z,3.60
2018-04-17T21:03:48.300Z,4.07
2018-04-17T21:06:15.807Z,3.97
2018-04-17T21:08:43.461Z,3.93
2018-04-17T21:11:11.224Z,3.97
2018-04-17T21:13:38.731Z,3.53
2018-04-17T21:16:06.266Z,4.23
2018-04-17T21:18:33.806Z,4.13
2018-04-17T21:21:01.329Z,4.10
2018-04-17T21:23:28.874Z,3.77
2018-04-17T21:25:56.411Z,3.57
2018-04-17T21:28:24.690Z,3.93
2018-04-17T21:30:52.210Z,3.93
2018-04-17T21:33:19.773Z,3.97
2018-04-17T21:35:47.292Z,4.53
2018-04-17T21:38:14.810Z,4.00
2018-04-17T21:40:42.354Z,4.10
2018-04-17T21:43:09.945Z,4.87
2018-04-17T21:45:37.458Z,4.43
2018-04-17T21:48:04.999Z,4.10
2018-04-17T21:50:32.518Z,4.53
2018-04-17T21:53:00.039Z,4.27
2018-04-17T21:55:27.560Z,4.23
2018-04-17T21:57:55.065Z,3.90
2018-04-17T22:00:22.578Z,4.10
2018-04-17T22:02:50.896Z,3.97
2018-04-17T22:05:18.417Z,4.50
2018-04-17T22:07:46.715Z,4.13
2018-04-17T22:10:14.274Z,4.30
2018-04-17T22:12:41.814Z,4.40
2018-04-17T22:15:10.115Z,4.70
2018-04-17T22:17:37.655Z,4.30
2018-04-17T22:20:05.968Z,4.67
2018-04-17T22:22:33.491Z,4.33
2018-04-17T22:25:01.091Z,4.30
2018-04-17T22:27:28.663Z,4.77
2018-04-17T22:29:56.182Z,5.00
2018-04-17T22:32:24.493Z,4.50
2018-04-17T22:34:52.005Z,4.87
2018-04-17T22:37:19.522Z,4.67
2018-04-17T22:39:47.087Z,4.67
2018-04-17T22:42:14.605Z,4.30
2018-04-17T22:44:42.130Z,4.70
2018-04-17T22:47:09.666Z,4.53
2018-04-17T22:49:37.187Z,4.37
2018-04-17T22:52:06.273Z,4.80
2018-04-17T22:54:33.796Z,4.67
2018-04-17T22:57:01.332Z,4.60
2018-04-17T22:59:29.661Z,4.57
2018-04-17T23:01:57.191Z,4.50
2018-04-17T23:04:24.756Z,4.43
2018-04-17T23:06:52.288Z,4.77
2018-04-17T23:09:19.824Z,4.70
2018-04-17T23:11:48.132Z,4.70
2018-04-17T23:14:15.661Z,4.53
2018-04-17T23:16:44.526Z,4.80
2018-04-17T23:19:12.169Z,4.60
2018-04-17T23:21:39.691Z,4.53
2018-04-17T23:24:07.250Z,4.83
2018-04-17T23:26:34.779Z,4.93
2018-04-17T23:29:02.274Z,4.70
2018-04-17T23:31:29.802Z,5.10
2018-04-17T23:33:58.110Z,4.70
2018-04-17T23:36:27.325Z,5.10
2018-04-17T23:38:54.826Z,4.83
2018-04-17T23:41:22.373Z,4.70
2018-04-17T23:43:49.891Z,4.73
2018-04-17T23:46:17.405Z,5.20
2018-04-17T23:48:44.923Z,4.97
2018-04-17T23:51:12.466Z,4.53
2018-04-17T23:53:40.005Z,4.67
2018-04-17T23:56:08.287Z,5.20
2018-04-17T23:58:36.597Z,4.67
